Time;durP1;ratioP1;P1;durP2;ratioP2;P2;SDS_P1;SDS_P2;PMS_P1;PMS_P2;Temp;Humidity;BMP_temperature;BMP_pressure;BME280_temperature;BME280_humidity;BME280_pressure;Samples;Min_cycle;Max_cycle;Signal;HPM_P1;HPM_P2
2022/06/26 00:01:56;;;;;;;0.63;0.63;;;;;;;14.63;85.51;97542.41;6171835;28;20253;-89
2022/06/26 00:04:58;;;;;;;3.13;0.90;;;;;;;14.57;85.61;97541.19;6180482;28;20232;-89
2022/06/26 00:08:02;;;;;;;1.17;0.80;;;;;;;14.58;85.77;97534.88;6163585;28;20311;-88
2022/06/26 00:11:04;;;;;;;0.60;0.60;;;;;;;14.55;85.64;97543.16;6163850;28;20233;-88
2022/06/26 00:14:07;;;;;;;3.80;0.83;;;;;;;14.54;85.53;97551.28;6180963;28;20244;-89
2022/06/26 00:17:10;;;;;;;1.20;0.93;;;;;;;14.51;85.43;97551.56;6163438;28;20595;-89
2022/06/26 00:20:12;;;;;;;2.63;0.83;;;;;;;14.49;85.52;97553.53;6160093;28;20702;-88
2022/06/26 00:23:14;;;;;;;2.10;1.00;;;;;;;14.46;85.85;97552.03;6199165;28;20224;-89
2022/06/26 00:26:16;;;;;;;3.60;0.90;;;;;;;14.40;85.77;97550.81;6177235;28;20238;-88
2022/06/26 00:29:19;;;;;;;1.30;0.90;;;;;;;14.36;85.97;97552.06;6193317;28;20225;-89
2022/06/26 00:32:21;;;;;;;0.80;0.80;;;;;;;14.30;86.13;97554.47;6208353;28;20610;-89
2022/06/26 00:35:24;;;;;;;3.10;1.00;;;;;;;14.22;86.08;97557.03;6191789;28;20315;-88
2022/06/26 00:38:26;;;;;;;2.33;0.90;;;;;;;14.16;86.41;97550.53;6191851;28;20231;-89
2022/06/26 00:41:28;;;;;;;3.90;0.97;;;;;;;14.13;86.54;97542.84;6192345;28;20256;-89
2022/06/26 00:44:30;;;;;;;1.70;0.90;;;;;;;14.10;86.24;97550.25;6206956;28;20757;-91
2022/06/26 00:47:33;;;;;;;1.37;0.97;;;;;;;14.08;86.71;97550.41;6167989;28;20370;-89
2022/06/26 00:50:36;;;;;;;1.13;0.87;;;;;;;14.06;86.57;97543.59;6197119;28;20233;-89
2022/06/26 00:53:38;;;;;;;2.17;0.93;;;;;;;14.00;86.65;97542.34;6202287;28;20228;-89
2022/06/26 00:56:41;;;;;;;3.53;1.20;;;;;;;13.97;87.05;97545.31;6200279;28;20722;-89
2022/06/26 00:59:44;;;;;;;0.83;0.83;;;;;;;13.99;87.19;97559.25;6183317;28;20236;-88
2022/06/26 01:02:55;;;;;;;0.70;0.70;;;;;;;14.04;86.78;97552.53;6189917;28;20241;-88
2022/06/26 01:05:57;;;;;;;0.97;0.70;;;;;;;14.06;87.19;97552.41;6185108;28;20232;-88
2022/06/26 01:09:00;;;;;;;2.40;0.97;;;;;;;14.02;86.77;97551.84;6187416;28;20311;-89
2022/06/26 01:12:04;;;;;;;1.10;0.90;;;;;;;13.99;87.06;97559.25;6175466;28;20232;-88
2022/06/26 01:15:12;;;;;;;1.10;1.00;;;;;;;13.93;87.10;97549.25;6207011;28;20200;-89
2022/06/26 01:18:15;;;;;;;1.20;0.90;;;;;;;13.88;87.33;97548.81;6170593;28;20206;-89
2022/06/26 01:21:19;;;;;;;0.93;0.83;;;;;;;13.87;87.56;97549.84;6171160;28;20573;-89
2022/06/26 01:24:21;;;;;;;1.63;0.80;;;;;;;13.88;87.52;97557.63;6183478;28;20374;-88
2022/06/26 01:27:24;;;;;;;0.90;0.80;;;;;;;13.95;87.37;97555.25;6207209;28;20228;-88
2022/06/26 01:30:27;;;;;;;0.83;0.83;;;;;;;14.01;87.39;97559.94;6183408;28;20280;-89
2022/06/26 01:33:30;;;;;;;1.47;0.90;;;;;;;14.03;86.93;97563.28;6191134;28;20247;-88
2022/06/26 01:36:32;;;;;;;1.17;0.80;;;;;;;13.93;86.90;97566.00;6187598;28;20356;-89
2022/06/26 01:39:35;;;;;;;0.60;0.60;;;;;;;13.93;87.29;97563.34;6152167;28;20697;-89
2022/06/26 01:42:38;;;;;;;2.50;1.03;;;;;;;13.89;86.73;97558.47;6207720;28;20228;-88
2022/06/26 01:45:49;;;;;;;2.37;1.00;;;;;;;13.83;86.98;97561.72;6198049;28;20224;-89
2022/06/26 01:48:52;;;;;;;0.70;0.70;;;;;;;13.81;87.25;97561.84;6186398;28;20326;-88
2022/06/26 01:51:54;;;;;;;1.30;0.73;;;;;;;13.84;87.47;97564.22;6177566;28;20688;-88
2022/06/26 01:54:57;;;;;;;1.53;0.77;;;;;;;13.87;87.70;97561.28;6182667;28;20265;-88
2022/06/26 01:58:03;;;;;;;1.00;0.90;;;;;;;13.84;87.21;97561.56;6182952;28;20233;-88
2022/06/26 02:01:07;;;;;;;1.80;0.90;;;;;;;13.82;87.81;97558.22;6206355;28;20844;-91
2022/06/26 02:04:12;;;;;;;0.87;0.87;;;;;;;13.78;87.48;97556.84;6191958;28;20287;-89
2022/06/26 02:07:14;;;;;;;1.97;1.00;;;;;;;13.73;87.90;97561.75;6205563;28;20387;-88
2022/06/26 02:13:42;;;;;;;2.00;0.90;;;;;;;13.70;88.05;97556.72;6182463;28;20359;-90
2022/06/26 02:16:45;;;;;;;0.93;0.90;;;;;;;13.73;88.06;97558.25;6166643;28;20237;-89
2022/06/26 02:19:49;;;;;;;2.20;0.90;;;;;;;13.72;88.26;97554.78;6202780;28;20228;-89
2022/06/26 02:22:51;;;;;;;1.53;1.07;;;;;;;13.68;88.44;97553.38;6183816;28;20289;-88
2022/06/26 02:25:53;;;;;;;3.10;1.00;;;;;;;13.64;89.02;97557.31;6184288;28;20304;-89
2022/06/26 02:28:56;;;;;;;1.37;1.00;;;;;;;13.62;89.13;97559.28;6177168;28;20327;-88
2022/06/26 02:31:58;;;;;;;1.23;1.13;;;;;;;13.61;89.25;97555.78;6206867;28;20649;-91
2022/06/26 02:35:00;;;;;;;0.70;0.70;;;;;;;13.63;89.36;97569.75;6176351;28;20594;-89
2022/06/26 02:38:03;;;;;;;1.23;1.13;;;;;;;13.61;88.95;97563.75;6206854;28;20282;-88
2022/06/26 02:41:05;;;;;;;0.97;0.93;;;;;;;13.65;89.23;97566.94;6166937;28;20291;-89
2022/06/26 02:44:08;;;;;;;1.40;0.83;;;;;;;13.68;89.27;97564.00;6186824;28;20382;-89
2022/06/26 02:47:10;;;;;;;0.97;0.90;;;;;;;13.72;89.42;97567.19;6189574;28;20236;-89
2022/06/26 02:50:14;;;;;;;1.43;0.90;;;;;;;13.84;89.48;97574.00;6189940;28;20236;-90
2022/06/26 02:53:17;;;;;;;0.97;0.80;;;;;;;13.91;88.97;97573.25;6205353;28;20370;-88
2022/06/26 02:56:19;;;;;;;1.43;0.77;;;;;;;13.97;89.17;97580.63;6190297;28;20276;-88
2022/06/26 02:59:21;;;;;;;0.93;0.93;;;;;;;14.03;88.59;97582.72;6204317;28;20716;-91
2022/06/26 03:02:27;;;;;;;1.00;0.73;;;;;;;14.04;88.92;97588.84;6205299;28;20817;-89
2022/06/26 03:05:35;;;;;;;1.00;1.00;;;;;;;14.06;88.48;97586.88;6204057;28;20256;-88
2022/06/26 03:08:39;;;;;;;0.73;0.73;;;;;;;14.07;88.64;97591.22;6188736;28;20275;-88
2022/06/26 03:11:42;;;;;;;0.80;0.80;;;;;;;14.15;88.76;97593.97;6181040;28;20715;-91
2022/06/26 03:14:44;;;;;;;1.20;1.10;;;;;;;14.24;88.51;97603.69;6204401;28;20244;-88
2022/06/26 03:17:47;;;;;;;0.90;0.90;;;;;;;14.27;88.08;97589.31;6179320;28;20236;-88
2022/06/26 03:20:50;;;;;;;2.10;1.10;;;;;;;14.33;88.18;97596.66;6163582;28;20229;-88
2022/06/26 03:24:02;;;;;;;1.53;0.90;;;;;;;14.36;88.25;97591.06;6190590;28;20260;-89
2022/06/26 03:27:06;;;;;;;2.00;0.80;;;;;;;14.42;88.17;97590.50;6188027;28;20229;-89
2022/06/26 03:30:11;;;;;;;0.90;0.87;;;;;;;14.51;87.78;97589.59;6187749;28;20229;-88
2022/06/26 03:33:16;;;;;;;0.90;0.90;;;;;;;14.60;87.87;97599.31;6204291;28;20488;-88
2022/06/26 03:36:18;;;;;;;1.00;1.00;;;;;;;14.67;88.01;97599.56;6204540;28;20227;-88
2022/06/26 03:39:22;;;;;;;1.00;1.00;;;;;;;14.69;87.54;97595.75;6176347;28;20236;-88
2022/06/26 03:42:27;;;;;;;1.93;0.90;;;;;;;14.69;87.45;97593.09;6174968;28;20367;-88
2022/06/26 03:45:29;;;;;;;0.80;0.80;;;;;;;14.67;87.67;97600.38;6179062;28;20286;-88
2022/06/26 03:48:32;;;;;;;0.80;0.80;;;;;;;14.65;87.43;97602.38;6171769;28;20221;-88
2022/06/26 03:51:34;;;;;;;1.07;0.80;;;;;;;14.68;87.25;97610.00;6163142;28;20269;-88
2022/06/26 03:54:39;;;;;;;1.50;1.00;;;;;;;14.68;87.46;97606.50;6187864;28;20596;-90
2022/06/26 03:57:41;;;;;;;0.80;0.80;;;;;;;14.68;87.37;97614.50;6188196;28;20282;-90
2022/06/26 04:00:44;;;;;;;0.83;0.83;;;;;;;14.68;87.29;97617.97;6184853;28;20233;-88
2022/06/26 04:03:46;;;;;;;1.23;0.87;;;;;;;14.62;87.31;97612.44;6180034;28;20229;-90
2022/06/26 04:06:48;;;;;;;1.30;1.20;;;;;;;14.56;87.54;97615.72;6202788;28;20281;-88
2022/06/26 04:09:59;;;;;;;0.80;0.80;;;;;;;14.51;87.55;97610.84;6164178;28;20236;-91
2022/06/26 04:13:05;;;;;;;0.90;0.90;;;;;;;14.47;87.50;97605.97;6197645;28;20315;-90
2022/06/26 04:16:11;;;;;;;0.90;0.90;;;;;;;14.49;87.80;97607.47;6204018;28;20610;-89
2022/06/26 04:19:18;;;;;;;0.80;0.80;;;;;;;14.51;87.56;97613.50;6203092;28;20323;-90
2022/06/26 04:22:20;;;;;;;0.90;0.90;;;;;;;14.47;88.00;97612.13;6179084;28;20232;-90
2022/06/26 04:25:24;;;;;;;1.33;1.20;;;;;;;14.49;87.69;97614.63;6185783;28;20232;-90
2022/06/26 04:28:26;;;;;;;1.70;1.00;;;;;;;14.52;87.92;97616.97;6202838;28;20224;-90
2022/06/26 04:31:31;;;;;;;1.03;1.00;;;;;;;14.56;87.91;97629.00;6187193;28;20638;-89
2022/06/26 04:34:35;;;;;;;1.13;0.90;;;;;;;14.57;87.80;97628.84;6203873;28;20236;-90
2022/06/26 04:37:40;;;;;;;1.50;1.00;;;;;;;14.60;87.67;97633.84;6165641;28;20229;-90
2022/06/26 04:40:42;;;;;;;1.20;0.80;;;;;;;14.62;87.44;97629.22;6184716;28;20283;-90
2022/06/26 04:43:45;;;;;;;1.50;0.90;;;;;;;14.64;87.47;97632.56;6177707;28;20228;-90
2022/06/26 04:46:48;;;;;;;1.17;1.07;;;;;;;14.66;87.51;97629.75;6187247;28;20255;-90
2022/06/26 04:49:50;;;;;;;1.00;1.00;;;;;;;14.65;87.45;97628.09;6178695;28;20344;-89
2022/06/26 04:52:53;;;;;;;1.73;0.80;;;;;;;14.63;87.81;97630.88;6183257;28;20259;-90
2022/06/26 04:56:00;;;;;;;0.90;0.90;;;;;;;14.68;87.80;97627.75;6172172;28;20308;-90
2022/06/26 04:59:10;;;;;;;3.23;1.00;;;;;;;14.74;87.42;97632.50;6185528;28;20256;-90
2022/06/26 05:02:17;;;;;;;1.07;0.97;;;;;;;14.81;87.41;97628.25;6187952;28;20224;-91
2022/06/26 05:05:30;;;;;;;0.90;0.90;;;;;;;14.85;87.00;97624.31;6204188;28;20254;-90
2022/06/26 05:08:51;;;;;;;1.90;1.10;;;;;;;14.87;86.99;97622.34;6207441;28;20229;-90
2022/06/26 05:11:55;;;;;;;0.90;0.90;;;;;;;14.90;87.33;97627.34;6189541;28;20229;-90
2022/06/26 05:14:57;;;;;;;1.10;1.00;;;;;;;14.94;87.17;97626.06;6190049;28;20379;-90
2022/06/26 05:18:10;;;;;;;0.80;0.80;;;;;;;15.00;87.04;97637.91;6205198;28;20221;-90
2022/06/26 05:21:13;;;;;;;0.93;0.93;;;;;;;15.06;86.81;97637.31;6194284;28;20213;-91
2022/06/26 05:24:16;;;;;;;0.80;0.80;;;;;;;15.13;86.98;97641.84;6168819;28;20213;-90
2022/06/26 05:27:21;;;;;;;0.90;0.90;;;;;;;15.20;86.74;97642.06;6190980;28;20352;-90
2022/06/26 05:30:24;;;;;;;3.07;1.23;;;;;;;15.20;87.16;97641.22;6210159;28;20228;-90
2022/06/26 05:33:30;;;;;;;1.10;1.00;;;;;;;15.24;87.19;97640.78;6189934;28;20236;-90
2022/06/26 05:36:32;;;;;;;0.80;0.80;;;;;;;15.30;87.70;97642.81;6188314;28;20322;-90
2022/06/26 05:39:39;;;;;;;1.13;1.00;;;;;;;15.38;87.28;97629.59;6189624;28;20704;-89
2022/06/26 05:42:42;;;;;;;2.30;0.90;;;;;;;15.44;87.34;97638.78;6190319;28;20236;-90
2022/06/26 05:45:45;;;;;;;0.93;0.93;;;;;;;15.52;87.55;97639.69;6190568;28;20311;-90
2022/06/26 05:48:57;;;;;;;0.70;0.70;;;;;;;15.61;87.11;97635.28;6191403;28;20237;-91
2022/06/26 05:51:59;;;;;;;1.20;1.10;;;;;;;15.69;87.44;97639.81;6190593;28;20229;-90
2022/06/26 05:55:22;;;;;;;1.20;1.20;;;;;;;15.79;87.67;97648.53;6179174;28;20957;-90
2022/06/26 05:58:35;;;;;;;1.00;0.90;;;;;;;15.83;87.71;97641.91;6203885;28;20224;-90
2022/06/26 06:01:54;;;;;;;1.10;1.00;;;;;;;15.91;87.74;97655.25;6203136;28;20260;-90
2022/06/26 06:04:56;;;;;;;2.00;1.10;;;;;;;16.01;87.39;97647.16;6175813;28;20205;-90
2022/06/26 06:07:59;;;;;;;1.17;0.90;;;;;;;16.13;87.81;97656.56;6185129;28;20302;-90
2022/06/26 06:11:01;;;;;;;1.50;1.40;;;;;;;16.24;87.96;97657.13;6187246;28;20267;-90
2022/06/26 06:14:05;;;;;;;2.37;1.47;;;;;;;16.36;87.96;97670.16;6206414;28;20718;-91
2022/06/26 06:20:28;;;;;;;2.53;1.87;;;;;;;16.66;87.84;97672.31;6205000;28;20229;-91
2022/06/26 06:23:30;;;;;;;2.43;2.23;;;;;;;16.85;87.52;97668.53;6201945;28;20339;-91
2022/06/26 06:26:33;;;;;;;2.50;2.03;;;;;;;17.02;87.54;97677.41;6182054;28;20319;-91
2022/06/26 06:29:45;;;;;;;3.77;2.30;;;;;;;17.27;86.82;97681.78;6188396;28;20239;-90
2022/06/26 06:32:48;;;;;;;2.43;2.17;;;;;;;17.60;86.06;97679.97;6204596;28;20235;-91
2022/06/26 06:36:03;;;;;;;4.87;2.53;;;;;;;17.94;84.69;97677.13;6208845;28;20225;-91
2022/06/26 06:39:07;;;;;;;2.57;2.37;;;;;;;18.26;83.80;97682.41;6191765;28;20212;-90
2022/06/26 06:42:09;;;;;;;3.40;2.43;;;;;;;18.59;82.65;97685.81;6189101;28;20204;-90
2022/06/26 06:45:12;;;;;;;4.27;2.47;;;;;;;18.93;81.83;97685.50;6173339;28;20234;-90
2022/06/26 06:48:35;;;;;;;4.70;2.50;;;;;;;19.31;80.38;97680.25;6169494;28;20265;-91
2022/06/26 06:51:50;;;;;;;5.23;3.43;;;;;;;19.69;79.04;97684.66;6180018;28;20324;-90
2022/06/26 06:54:52;;;;;;;3.87;3.30;;;;;;;19.93;78.16;97686.31;6180337;28;20376;-90
2022/06/26 06:57:54;;;;;;;4.13;3.30;;;;;;;20.32;76.82;97686.09;6181685;28;20236;-90
2022/06/26 07:00:56;;;;;;;4.03;3.40;;;;;;;20.70;75.09;97684.16;6184560;28;20240;-90
2022/06/26 07:17:24;;;;;;;3.93;2.80;;;;;;;22.52;66.81;97697.94;6206082;28;20217;-91
2022/06/26 07:20:29;;;;;;;2.90;2.60;;;;;;;22.94;64.94;97685.34;6211290;28;20239;-90
2022/06/26 07:23:32;;;;;;;3.73;2.43;;;;;;;23.27;63.00;97690.81;6187243;28;20634;-90
2022/06/26 07:26:52;;;;;;;2.40;2.13;;;;;;;23.71;61.73;97685.75;6178680;28;20953;-89
2022/06/26 07:29:54;;;;;;;2.30;2.10;;;;;;;24.09;60.29;97690.53;6183773;28;20271;-90
2022/06/26 07:32:57;;;;;;;2.77;2.10;;;;;;;24.30;59.60;97684.94;6171179;28;20224;-90
2022/06/26 07:36:02;;;;;;;2.10;1.90;;;;;;;24.69;58.42;97694.81;6185458;28;20318;-91
2022/06/26 07:39:05;;;;;;;2.40;2.20;;;;;;;25.09;57.49;97692.81;6201515;28;20223;-92
2022/06/26 07:42:08;;;;;;;3.27;1.80;;;;;;;25.41;56.60;97692.88;6170384;28;20235;-91
2022/06/26 07:45:12;;;;;;;2.20;2.00;;;;;;;25.69;56.72;97696.03;6198115;28;20269;-89
2022/06/26 07:48:27;;;;;;;2.07;1.67;;;;;;;26.14;54.85;97693.22;6181418;28;20217;-92
2022/06/26 07:51:33;;;;;;;1.70;1.60;;;;;;;26.46;54.27;97689.38;6151561;28;20415;-94
2022/06/26 07:54:36;;;;;;;1.80;1.70;;;;;;;26.72;53.50;97694.53;6171567;28;20236;-92
2022/06/26 07:57:38;;;;;;;2.70;1.77;;;;;;;26.56;53.33;97696.97;6200832;28;20235;-92
2022/06/26 08:00:41;;;;;;;2.00;1.80;;;;;;;25.92;54.38;97701.72;6187863;28;20231;-93
2022/06/26 08:03:44;;;;;;;2.33;2.03;;;;;;;25.65;55.76;97700.25;6177921;28;20221;-92
2022/06/26 08:06:46;;;;;;;3.03;1.92;;;;;;;25.22;57.00;97692.78;6193036;28;20254;-91
2022/06/26 08:09:49;;;;;;;1.90;1.70;;;;;;;24.90;58.33;97696.41;6188362;28;20231;-91
2022/06/26 08:12:51;;;;;;;2.00;1.80;;;;;;;25.20;57.95;97697.56;6199417;28;20232;-92
2022/06/26 08:15:53;;;;;;;2.13;1.92;;;;;;;25.75;57.39;97692.50;6181734;28;20232;-91
2022/06/26 08:18:56;;;;;;;1.60;1.50;;;;;;;26.58;55.45;97689.47;6183549;28;20247;-93
2022/06/26 08:22:02;;;;;;;2.13;1.80;;;;;;;27.36;53.11;97687.69;6198267;28;20228;-91
2022/06/26 08:25:05;;;;;;;2.38;1.88;;;;;;;27.52;53.31;97686.25;6181695;28;20235;-91
2022/06/26 08:28:07;;;;;;;2.42;2.22;;;;;;;27.98;52.68;97685.56;6174994;28;20232;-89
2022/06/26 08:31:09;;;;;;;2.25;1.85;;;;;;;28.19;52.20;97681.47;6166850;28;20247;-90
2022/06/26 08:34:13;;;;;;;2.50;2.05;;;;;;;28.44;51.49;97682.09;6169364;28;20224;-88
2022/06/26 08:37:16;;;;;;;1.88;1.70;;;;;;;28.79;51.37;97690.22;6201030;28;20228;-90
2022/06/26 08:40:19;;;;;;;2.78;1.83;;;;;;;28.34;52.16;97684.56;6169393;28;20799;-88
2022/06/26 08:43:22;;;;;;;2.53;1.73;;;;;;;28.01;53.05;97685.09;6179106;28;20228;-88
2022/06/26 08:46:35;;;;;;;3.17;1.77;;;;;;;27.59;54.00;97683.47;6206316;28;20323;-90
2022/06/26 08:49:39;;;;;;;3.03;2.00;;;;;;;27.25;54.78;97685.78;6206959;28;20221;-90
2022/06/26 08:52:43;;;;;;;3.72;2.13;;;;;;;27.16;54.41;97696.09;6191260;28;20233;-89
2022/06/26 08:55:46;;;;;;;2.05;1.92;;;;;;;27.54;54.11;97687.72;6184595;28;20228;-91
2022/06/26 08:58:48;;;;;;;2.40;2.20;;;;;;;28.41;52.01;97696.13;6183904;28;20256;-91
2022/06/26 09:01:51;;;;;;;2.30;2.10;;;;;;;28.64;50.99;97695.31;6178475;28;20735;-91
2022/06/26 09:04:55;;;;;;;1.88;1.77;;;;;;;27.97;52.30;97702.88;6205659;28;20239;-89
2022/06/26 09:07:58;;;;;;;2.42;2.13;;;;;;;28.13;53.22;97701.41;6184768;28;20285;-91
2022/06/26 09:11:01;;;;;;;2.78;2.20;;;;;;;28.23;52.97;97690.81;6191360;28;20216;-92
2022/06/26 09:14:15;;;;;;;2.17;1.98;;;;;;;27.63;53.55;97690.09;6194600;28;20232;-89
2022/06/26 09:17:22;;;;;;;2.47;2.10;;;;;;;27.08;54.73;97695.59;6199748;28;20226;-88
2022/06/26 09:20:26;;;;;;;2.13;1.92;;;;;;;26.76;56.38;97690.31;6185826;28;20299;-91
2022/06/26 09:23:28;;;;;;;2.17;1.98;;;;;;;27.56;53.78;97684.75;6194851;28;20708;-90
2022/06/26 09:26:31;;;;;;;2.00;1.90;;;;;;;28.66;49.08;97685.00;6189234;28;20216;-89
2022/06/26 09:29:33;;;;;;;2.40;2.20;;;;;;;29.45;47.50;97683.41;6198729;28;20925;-88
2022/06/26 09:32:36;;;;;;;2.08;1.85;;;;;;;29.81;46.68;97686.78;6179887;28;20233;-89
2022/06/26 09:35:39;;;;;;;2.50;2.30;;;;;;;29.76;43.38;97690.25;6177303;28;20390;-91
2022/06/26 09:38:48;;;;;;;2.22;1.90;;;;;;;30.35;43.74;97687.97;6183806;28;20820;-87
2022/06/26 09:41:50;;;;;;;2.50;2.30;;;;;;;30.69;42.66;97684.16;6206535;28;20228;-89
2022/06/26 09:44:54;;;;;;;2.40;2.20;;;;;;;31.21;42.13;97672.03;6191092;28;20643;-90
2022/06/26 09:47:58;;;;;;;2.30;2.10;;;;;;;31.13;43.59;97681.50;6187924;28;20224;-88
2022/06/26 09:51:02;;;;;;;2.78;2.38;;;;;;;31.02;43.77;97679.69;6187301;28;20224;-89
2022/06/26 09:54:05;;;;;;;2.35;2.10;;;;;;;31.07;45.02;97679.72;6190621;28;20328;-89
2022/06/26 09:57:08;;;;;;;2.70;2.28;;;;;;;31.60;42.88;97686.38;6202021;28;20298;-88
2022/06/26 10:00:10;;;;;;;2.50;2.30;;;;;;;31.69;41.10;97671.19;6204667;28;20699;-89
2022/06/26 10:06:56;;;;;;;4.22;2.38;;;;;;;31.06;39.33;97678.06;6182313;28;20331;-89
2022/06/26 10:10:00;;;;;;;3.65;2.22;;;;;;;31.36;38.71;97674.91;6176799;28;20221;-88
2022/06/26 10:13:07;;;;;;;2.20;1.90;;;;;;;31.85;37.91;97676.53;6203484;28;20252;-87
2022/06/26 10:16:09;;;;;;;2.67;2.13;;;;;;;32.46;38.07;97684.41;6179684;28;20599;-88
2022/06/26 10:19:19;;;;;;;1.75;1.65;;;;;;;32.46;38.55;97670.75;6170885;28;20228;-87
2022/06/26 10:22:22;;;;;;;2.03;1.83;;;;;;;32.58;36.38;97669.47;6173334;28;21506;-89
2022/06/26 10:25:45;;;;;;;2.35;2.15;;;;;;;33.09;35.04;97671.66;6160073;28;20228;-89
2022/06/26 10:29:08;;;;;;;3.03;2.20;;;;;;;32.88;33.08;97676.22;6129031;28;20295;-90
2022/06/26 10:32:22;;;;;;;2.60;2.40;;;;;;;32.54;35.17;97668.34;6143617;28;20242;-88
2022/06/26 10:40:00;;;;;;;2.00;1.90;;;;;;;32.64;34.87;97660.19;6152279;28;20226;-89
2022/06/26 10:43:06;;;;;;;2.80;2.00;;;;;;;33.49;35.96;97657.31;6146966;28;20292;-88
2022/06/26 10:46:11;;;;;;;2.30;2.10;;;;;;;34.30;35.13;97655.50;6199755;28;20324;-88
2022/06/26 10:49:14;;;;;;;2.03;1.88;;;;;;;34.26;34.34;97659.03;6163287;28;20268;-88
2022/06/26 10:52:35;;;;;;;2.42;2.22;;;;;;;33.68;36.24;97669.38;6175671;28;20257;-88
2022/06/26 10:55:39;;;;;;;3.13;2.20;;;;;;;32.65;36.40;97666.50;6191041;28;20226;-87
2022/06/26 10:58:48;;;;;;;2.17;2.03;;;;;;;32.50;36.55;97660.94;6189915;28;20240;-88
2022/06/26 11:01:50;;;;;;;2.35;2.25;;;;;;;32.01;37.07;97663.84;6196986;28;20273;-87
2022/06/26 11:04:53;;;;;;;2.28;2.08;;;;;;;32.09;38.95;97666.09;6165297;28;20283;-87
2022/06/26 11:07:55;;;;;;;2.13;2.03;;;;;;;32.31;39.27;97662.47;6159272;28;20328;-88
2022/06/26 11:10:59;;;;;;;2.17;2.03;;;;;;;31.99;40.12;97660.56;6189411;28;20225;-87
2022/06/26 11:14:07;;;;;;;2.13;1.90;;;;;;;31.27;42.47;97658.19;6168577;28;20260;-88
2022/06/26 11:17:12;;;;;;;2.00;1.90;;;;;;;31.23;43.45;97659.78;6152643;28;20269;-88
2022/06/26 11:24:20;;;;;;;1.98;1.88;;;;;;;31.46;43.64;97656.75;6176836;28;20229;-86
2022/06/26 11:27:28;;;;;;;3.38;2.00;;;;;;;32.75;40.74;97649.34;6199134;28;20233;-87
2022/06/26 11:30:31;;;;;;;2.30;1.80;;;;;;;33.84;38.22;97659.31;6172594;28;20646;-90
2022/06/26 11:33:35;;;;;;;2.30;1.70;;;;;;;33.88;37.32;97653.00;6193827;28;20233;-88
2022/06/26 11:37:05;;;;;;;2.88;1.92;;;;;;;34.52;35.99;97657.09;6181123;28;20363;-87
2022/06/26 11:40:15;;;;;;;2.50;2.30;;;;;;;34.60;31.54;97656.53;6169894;28;20233;-88
2022/06/26 11:43:19;;;;;;;2.33;2.13;;;;;;;34.67;30.73;97657.03;6179236;28;20514;-87
2022/06/26 11:46:22;;;;;;;3.13;2.15;;;;;;;34.92;30.54;97647.97;6152543;28;20322;-88
2022/06/26 11:49:25;;;;;;;1.70;1.60;;;;;;;35.34;30.69;97640.06;6163125;28;20243;-88
2022/06/26 11:52:33;;;;;;;2.25;2.05;;;;;;;35.68;30.32;97631.91;6184884;28;20833;-88
2022/06/26 11:55:45;;;;;;;2.45;2.25;;;;;;;35.66;32.26;97644.28;6187776;28;20708;-88
2022/06/26 11:58:50;;;;;;;2.25;1.85;;;;;;;34.48;33.82;97656.00;6177113;28;20252;-88
2022/06/26 12:01:52;;;;;;;1.88;1.70;;;;;;;33.50;36.55;97645.28;6173016;28;20748;-88
2022/06/26 12:05:00;;;;;;;1.90;1.80;;;;;;;33.14;37.86;97647.06;6160476;28;20244;-88
2022/06/26 12:08:02;;;;;;;2.00;1.90;;;;;;;33.93;37.41;97646.72;6160912;28;20222;-88
2022/06/26 12:11:05;;;;;;;1.80;1.70;;;;;;;34.50;36.67;97651.06;6192944;28;20288;-87
2022/06/26 12:14:11;;;;;;;2.03;1.92;;;;;;;34.92;33.71;97643.28;6178836;28;20629;-87
2022/06/26 12:17:21;;;;;;;1.73;1.63;;;;;;;35.45;34.41;97643.56;6186564;28;20337;-89
2022/06/26 12:24:59;;;;;;;2.20;2.00;;;;;;;35.64;30.07;97638.25;6186985;28;20229;-87
2022/06/26 12:28:02;;;;;;;2.13;2.00;;;;;;;35.96;29.30;97638.56;6185894;28;20543;-87
2022/06/26 12:31:04;;;;;;;2.17;1.98;;;;;;;36.45;28.32;97637.59;6176170;28;20308;-89
2022/06/26 12:34:07;;;;;;;2.38;2.00;;;;;;;36.48;28.66;97631.53;6201394;28;20233;-89
2022/06/26 12:37:09;;;;;;;2.78;2.33;;;;;;;36.37;28.80;97621.72;6200650;28;20236;-89
2022/06/26 12:40:12;;;;;;;2.10;2.00;;;;;;;36.62;28.66;97628.91;6183647;28;20232;-87
2022/06/26 12:43:14;;;;;;;1.70;1.60;;;;;;;37.09;28.67;97630.84;6199851;28;20323;-88
2022/06/26 12:46:17;;;;;;;3.15;2.10;;;;;;;37.09;27.57;97630.84;6199265;28;20335;-88
2022/06/26 12:49:19;;;;;;;2.42;2.05;;;;;;;37.36;28.21;97625.53;6184247;28;20731;-87
2022/06/26 12:52:34;;;;;;;1.92;1.80;;;;;;;37.48;28.02;97625.91;6182447;28;20233;-88
2022/06/26 12:55:36;;;;;;;2.15;1.98;;;;;;;36.88;28.15;97625.59;6199841;28;20323;-87
2022/06/26 12:58:43;;;;;;;3.00;2.30;;;;;;;35.69;30.40;97628.06;6198754;28;20225;-87
2022/06/26 13:01:45;;;;;;;1.80;1.70;;;;;;;34.92;33.28;97626.84;6200371;28;20229;-88
2022/06/26 13:04:48;;;;;;;2.15;1.95;;;;;;;35.14;32.69;97623.69;6168002;28;20239;-87
2022/06/26 13:07:50;;;;;;;1.85;1.75;;;;;;;35.44;30.85;97623.53;6181424;28;20252;-88
2022/06/26 13:10:53;;;;;;;2.10;2.00;;;;;;;34.17;30.32;97625.88;6199585;28;20255;-87
2022/06/26 13:13:55;;;;;;;2.22;2.08;;;;;;;33.84;31.46;97613.56;6167656;28;20232;-87
2022/06/26 13:17:13;;;;;;;2.10;2.00;;;;;;;33.41;34.65;97620.34;6199870;28;20252;-87
2022/06/26 13:20:15;;;;;;;2.40;2.00;;;;;;;33.94;35.46;97615.50;6198933;28;20225;-88
2022/06/26 13:24:00;;;;;;;2.30;2.10;;;;;;;35.17;30.74;97604.75;6108131;29;20251;-88
2022/06/26 13:27:10;;;;;;;2.47;1.85;;;;;;;35.92;31.10;97612.78;6100072;29;20228;-87
2022/06/26 13:30:12;;;;;;;2.20;2.00;;;;;;;34.42;29.41;97612.16;6093881;29;20254;-88
2022/06/26 13:33:14;;;;;;;2.75;1.95;;;;;;;34.62;29.50;97608.53;6109505;28;20274;-88
2022/06/26 13:36:53;;;;;;;2.30;2.20;;;;;;;34.50;31.04;97608.03;6110060;29;20215;-87
2022/06/26 13:39:56;;;;;;;2.65;1.90;;;;;;;35.00;30.12;97608.97;6110001;29;20235;-88
2022/06/26 13:42:58;;;;;;;2.38;2.10;;;;;;;35.91;29.04;97615.81;6109691;29;20243;-87
2022/06/26 13:46:00;;;;;;;2.00;1.90;;;;;;;36.35;26.91;97608.28;6108837;29;20259;-88
2022/06/26 13:49:04;;;;;;;3.72;2.08;;;;;;;36.75;27.02;97601.53;6192828;28;20236;-88
2022/06/26 13:52:07;;;;;;;3.15;1.80;;;;;;;36.22;28.04;97600.72;6197987;28;20291;-88
2022/06/26 13:55:10;;;;;;;2.10;1.98;;;;;;;36.90;26.08;97601.34;6182175;28;20233;-87
2022/06/26 13:58:12;;;;;;;2.17;1.73;;;;;;;37.81;25.68;97592.91;6182469;28;20311;-88
2022/06/26 14:01:14;;;;;;;1.77;1.67;;;;;;;38.72;26.28;97602.31;6182737;28;20678;-87
2022/06/26 14:04:16;;;;;;;1.77;1.67;;;;;;;39.54;23.89;97601.38;6198369;28;20233;-88
2022/06/26 14:25:55;;;;;;;1.52;1.42;;;;;;;44.23;16.99;97584.53;6183459;28;20272;-88
2022/06/26 14:28:57;;;;;;;2.53;1.88;;;;;;;44.08;17.54;97588.81;6182674;28;20280;-87
2022/06/26 14:31:59;;;;;;;1.63;1.52;;;;;;;45.47;16.93;97585.84;6165090;28;20364;-87
2022/06/26 14:35:09;;;;;;;1.98;1.70;;;;;;;46.33;16.72;97575.16;6160827;28;20229;-88
2022/06/26 14:38:12;;;;;;;1.90;1.65;;;;;;;47.51;15.77;97579.66;6180916;28;20221;-88
2022/06/26 14:41:14;;;;;;;1.90;1.80;;;;;;;47.64;15.27;97575.50;6180813;28;20225;-88
2022/06/26 14:44:16;;;;;;;2.20;1.63;;;;;;;47.41;14.37;97580.25;6197458;28;20241;-88
2022/06/26 14:47:19;;;;;;;2.35;1.85;;;;;;;47.58;15.14;97580.63;6165150;28;20240;-87
2022/06/26 14:54:56;;;;;;;3.47;1.77;;;;;;;46.76;15.45;97575.09;6182376;28;20225;-87
2022/06/26 14:57:58;;;;;;;1.67;1.58;;;;;;;46.90;16.45;97578.25;6196864;28;20229;-88
2022/06/26 15:01:00;;;;;;;1.60;1.50;;;;;;;46.92;15.73;97573.09;6180833;28;20233;-87
2022/06/26 15:04:02;;;;;;;4.47;2.00;;;;;;;47.11;14.56;97566.78;6183436;28;20237;-88
2022/06/26 15:07:05;;;;;;;2.22;1.92;;;;;;;46.49;14.99;97568.44;6197085;28;20283;-88
2022/06/26 15:10:09;;;;;;;2.50;1.55;;;;;;;46.71;16.61;97571.78;6181095;28;20229;-88
2022/06/26 15:13:11;;;;;;;1.70;1.50;;;;;;;46.84;14.49;97564.91;6181370;28;20220;-87
2022/06/26 15:16:13;;;;;;;1.60;1.50;;;;;;;47.42;14.21;97562.28;6164379;28;20237;-88
2022/06/26 15:19:16;;;;;;;1.58;1.40;;;;;;;47.71;15.43;97558.91;6196594;28;20319;-88
2022/06/26 15:22:18;;;;;;;2.50;1.83;;;;;;;48.06;14.03;97568.00;6163618;28;20229;-88
2022/06/26 15:25:21;;;;;;;1.70;1.60;;;;;;;48.05;14.06;97563.56;6171923;28;20281;-89
2022/06/26 15:28:24;;;;;;;4.45;2.25;;;;;;;47.93;13.72;97560.94;6189411;28;20279;-87
2022/06/26 15:31:27;;;;;;;1.50;1.40;;;;;;;47.76;14.81;97558.63;6164330;28;20299;-89